Arden Hills, Minnesota
Current Conditions -  °F | °C
As of 10:35 PM on Friday 24 Oct 2014 (Local Time) from KANE Reporting Station
Clear Clear  
Wind Chill: 16°   Ceiling: Unl
Heat Index: 16°   Visibility: 10mi
Dew Point: 10°   Wind: 7mph
Humidity: 68%   Direction: 220°SW
Pressure: 29.84"   Gusts: NA
Location:  45.0848°N, 93.136°W
Report Text: KANE 250335Z AUTO 22006KT 10SM CLR 16/10 A2984 RMK AO2
Loading
Personal Weather Stations






























Interactive Weather Map
Tropical Storm Tracking
New forecast layout! Learn more

10-Day Weather Forecast

Advertisements
Track Severe Weather on mobile